createdAt,value
2023-05-22T00:00:51.584Z,49.86
2023-05-22T00:03:24.456Z,49.68
2023-05-22T00:05:57.096Z,49.89
2023-05-22T00:08:30.067Z,50.04
2023-05-22T00:11:00.717Z,50.04
2023-05-22T00:13:32.800Z,50.28
2023-05-22T00:16:03.520Z,50.25
2023-05-22T00:18:34.863Z,50.46
2023-05-22T00:21:06.877Z,50.28
2023-05-22T00:23:37.675Z,50.22
2023-05-22T00:26:08.538Z,50.55
2023-05-22T00:28:38.963Z,50.39
2023-05-22T00:31:09.974Z,50.64
2023-05-22T00:33:41.992Z,50.77
2023-05-22T00:36:12.707Z,50.66
2023-05-22T00:38:43.216Z,50.63
2023-05-22T00:41:14.273Z,50.77
2023-05-22T00:43:45.617Z,50.95
2023-05-22T00:46:17.995Z,50.62
2023-05-22T00:48:49.285Z,50.92
2023-05-22T00:51:26.286Z,50.86
2023-05-22T00:53:57.835Z,50.94
2023-05-22T00:56:29.220Z,50.81
2023-05-22T00:59:00.632Z,50.85
2023-05-22T01:01:33.892Z,50.96
2023-05-22T01:04:08.377Z,51.09
2023-05-22T01:06:41.335Z,51.08
2023-05-22T01:09:12.008Z,51.07
2023-05-22T01:11:48.533Z,51.13
2023-05-22T01:14:24.928Z,51.04
2023-05-22T01:17:01.574Z,51.16
2023-05-22T01:19:41.257Z,51.07
2023-05-22T01:22:17.643Z,51.18
2023-05-22T01:25:14.056Z,51.30
2023-05-22T01:27:57.093Z,51.00
2023-05-22T01:30:42.405Z,51.08
2023-05-22T01:33:18.209Z,51.47
2023-05-22T01:35:53.585Z,51.28
2023-05-22T01:38:25.743Z,50.73
2023-05-22T01:40:57.407Z,50.67
2023-05-22T01:43:28.593Z,51.09
2023-05-22T01:46:01.488Z,51.21
2023-05-22T01:48:32.143Z,51.04
2023-05-22T01:51:05.869Z,50.60
2023-05-22T01:53:39.550Z,50.72
2023-05-22T01:56:19.101Z,50.84
2023-05-22T01:58:52.793Z,50.97
2023-05-22T02:01:25.965Z,51.39
2023-05-22T02:03:59.033Z,51.82
2023-05-22T02:06:32.524Z,52.05
2023-05-22T02:09:04.686Z,52.47
2023-05-22T02:11:37.127Z,52.50
2023-05-22T02:14:08.983Z,52.98
2023-05-22T02:16:40.029Z,53.25
2023-05-22T02:19:10.935Z,53.52
2023-05-22T02:21:41.421Z,53.90
2023-05-22T02:24:12.483Z,54.14
2023-05-22T02:26:43.363Z,54.05
2023-05-22T02:29:14.221Z,54.32
2023-05-22T02:31:44.881Z,54.53
2023-05-22T02:34:16.037Z,54.55
2023-05-22T02:36:47.845Z,54.55
2023-05-22T02:39:20.304Z,54.66
2023-05-22T02:41:50.801Z,54.69
2023-05-22T02:44:21.287Z,54.60
2023-05-22T02:46:52.078Z,54.71
2023-05-22T02:49:22.682Z,54.69
2023-05-22T02:51:53.262Z,54.86
2023-05-22T02:54:23.776Z,55.24
2023-05-22T02:56:54.380Z,55.18
2023-05-22T02:59:24.934Z,55.18
2023-05-22T03:01:55.880Z,55.36
2023-05-22T03:04:27.602Z,55.35
2023-05-22T03:06:58.202Z,55.48
2023-05-22T03:09:28.797Z,55.44
2023-05-22T03:12:00.786Z,55.58
2023-05-22T03:14:32.394Z,55.64
2023-05-22T03:17:04.681Z,55.76
2023-05-22T03:19:35.260Z,55.65
2023-05-22T03:22:07.400Z,55.56
2023-05-22T03:24:39.701Z,55.94
2023-05-22T03:27:14.493Z,56.04
2023-05-22T03:29:45.121Z,55.99
2023-05-22T03:32:17.122Z,56.03
2023-05-22T03:34:47.640Z,56.06
2023-05-22T03:37:18.407Z,56.36
2023-05-22T03:39:48.911Z,56.07
2023-05-22T03:42:19.441Z,56.07
2023-05-22T03:44:50.107Z,56.32
2023-05-22T03:47:20.628Z,56.13
2023-05-22T03:49:52.766Z,56.01
2023-05-22T03:52:23.786Z,55.96
2023-05-22T03:54:54.433Z,56.13
2023-05-22T03:57:26.469Z,56.11
2023-05-22T03:59:57.241Z,55.92
2023-05-22T04:02:29.497Z,56.40
2023-05-22T04:05:00.664Z,56.20
2023-05-22T04:07:32.552Z,56.09
2023-05-22T04:10:04.718Z,56.09
2023-05-22T04:12:35.447Z,56.17
2023-05-22T04:15:07.477Z,55.85
2023-05-22T04:17:41.853Z,55.89
2023-05-22T04:20:12.951Z,56.13
2023-05-22T04:22:46.739Z,55.83
2023-05-22T04:25:17.439Z,55.73
2023-05-22T04:27:49.635Z,55.51
2023-05-22T04:30:22.058Z,55.53
2023-05-22T04:32:54.625Z,55.56
2023-05-22T04:35:25.258Z,55.62
2023-05-22T04:37:56.628Z,55.25
2023-05-22T04:40:30.851Z,55.43
2023-05-22T04:43:01.798Z,54.80
2023-05-22T04:45:33.122Z,54.75
2023-05-22T04:48:04.032Z,54.94
2023-05-22T04:50:36.288Z,54.87
2023-05-22T04:53:07.475Z,54.11
2023-05-22T04:55:37.980Z,52.93
2023-05-22T04:58:09.008Z,52.30
2023-05-22T05:00:39.727Z,52.84
2023-05-22T05:03:11.836Z,52.34
2023-05-22T05:05:42.590Z,52.46
2023-05-22T05:08:13.556Z,53.24
2023-05-22T05:10:44.186Z,54.75
2023-05-22T05:13:14.764Z,54.12
2023-05-22T05:15:45.393Z,53.50
2023-05-22T05:18:17.052Z,54.48
2023-05-22T05:20:47.840Z,54.99
2023-05-22T05:23:18.419Z,54.46
2023-05-22T05:25:50.581Z,54.55
2023-05-22T05:28:22.711Z,55.11
2023-05-22T05:30:53.647Z,55.07
2023-05-22T05:33:24.219Z,55.10
2023-05-22T05:35:56.690Z,55.01
2023-05-22T05:38:30.146Z,55.21
2023-05-22T05:41:00.705Z,53.01
2023-05-22T05:43:31.390Z,51.39
2023-05-22T05:46:02.226Z,51.72
2023-05-22T05:48:32.871Z,50.98
2023-05-22T05:51:03.573Z,50.31
2023-05-22T05:53:34.696Z,50.68
2023-05-22T05:56:06.660Z,49.58
2023-05-22T05:58:37.148Z,49.52
2023-05-22T06:01:08.448Z,50.66
2023-05-22T06:03:39.230Z,51.64
2023-05-22T06:06:10.687Z,50.88
2023-05-22T06:08:42.320Z,50.65
2023-05-22T06:11:12.948Z,50.76
2023-05-22T06:13:45.544Z,51.40
2023-05-22T06:16:16.634Z,52.16
2023-05-22T06:18:47.480Z,50.16
2023-05-22T06:21:19.845Z,51.25
2023-05-22T06:23:51.582Z,50.97
2023-05-22T06:26:23.561Z,51.38
2023-05-22T06:28:54.573Z,50.56
2023-05-22T06:31:26.005Z,52.08
2023-05-22T06:33:57.391Z,50.59
2023-05-22T06:36:28.255Z,51.46
2023-05-22T06:38:58.751Z,50.84
2023-05-22T06:41:29.445Z,51.53
2023-05-22T06:43:59.936Z,51.82
2023-05-22T06:46:30.624Z,51.10
2023-05-22T06:49:02.300Z,52.37
2023-05-22T06:51:34.305Z,53.01
2023-05-22T06:54:06.990Z,53.14
2023-05-22T06:56:37.675Z,53.15
2023-05-22T06:59:08.753Z,52.92
2023-05-22T07:01:39.670Z,53.40
2023-05-22T07:04:12.822Z,54.28
2023-05-22T07:06:44.062Z,54.33
2023-05-22T07:09:15.666Z,53.61
2023-05-22T07:11:47.677Z,53.61
2023-05-22T07:14:18.433Z,53.08
2023-05-22T07:16:49.141Z,52.86
2023-05-22T07:19:20.082Z,53.63
2023-05-22T07:21:50.933Z,52.88
2023-05-22T07:24:21.565Z,53.06
2023-05-22T07:26:52.951Z,53.56
2023-05-22T07:29:23.612Z,53.56
2023-05-22T07:31:54.460Z,54.13
2023-05-22T07:34:27.887Z,53.49
2023-05-22T07:36:59.882Z,53.71
2023-05-22T07:39:30.409Z,53.57
2023-05-22T07:42:02.017Z,54.15
2023-05-22T07:44:34.475Z,54.25
2023-05-22T07:47:05.625Z,53.98
2023-05-22T07:49:36.322Z,53.99
2023-05-22T07:52:07.629Z,53.53
2023-05-22T07:54:39.580Z,53.63
2023-05-22T07:57:12.585Z,53.37
2023-05-22T07:59:45.574Z,52.47
2023-05-22T08:02:16.679Z,52.48
2023-05-22T08:04:48.434Z,52.46
2023-05-22T08:07:19.008Z,52.00
2023-05-22T08:09:49.619Z,51.66
2023-05-22T08:12:20.255Z,51.51
2023-05-22T08:14:50.923Z,51.81
2023-05-22T08:17:21.570Z,51.46
2023-05-22T08:19:53.750Z,51.28
2023-05-22T08:22:24.948Z,51.02
2023-05-22T08:24:57.020Z,50.14
2023-05-22T08:27:29.172Z,49.66
2023-05-22T08:30:00.325Z,49.35
2023-05-22T08:32:31.795Z,49.84
2023-05-22T08:35:05.345Z,49.85
2023-05-22T08:37:37.092Z,49.54
2023-05-22T08:40:13.035Z,49.34
2023-05-22T08:42:44.576Z,49.12
2023-05-22T08:45:16.415Z,48.89
2023-05-22T08:47:50.247Z,48.94
2023-05-22T08:50:21.993Z,48.54
2023-05-22T08:52:54.994Z,48.22
2023-05-22T08:55:26.471Z,48.19
2023-05-22T08:57:58.858Z,47.36
2023-05-22T09:00:30.246Z,48.06
2023-05-22T09:03:01.267Z,48.83
2023-05-22T09:05:33.570Z,48.76
2023-05-22T09:08:15.964Z,48.52
2023-05-22T09:10:38.225Z,48.06
2023-05-22T09:13:11.338Z,47.75
2023-05-22T09:15:42.048Z,47.55
2023-05-22T09:18:13.455Z,47.64
2023-05-22T09:20:44.912Z,46.96
2023-05-22T09:23:18.298Z,46.40
2023-05-22T09:25:49.145Z,46.78
2023-05-22T09:28:20.554Z,47.41
2023-05-22T09:30:56.232Z,47.37
2023-05-22T09:33:27.102Z,46.94
2023-05-22T09:35:58.750Z,47.08
2023-05-22T09:38:31.365Z,47.23
2023-05-22T09:41:02.249Z,47.66
2023-05-22T09:43:35.864Z,47.29
2023-05-22T09:46:06.439Z,47.74
2023-05-22T09:48:37.597Z,47.65
2023-05-22T09:51:10.698Z,47.14
2023-05-22T09:53:44.248Z,46.81
2023-05-22T09:56:38.436Z,46.64
2023-05-22T09:59:01.121Z,46.89
2023-05-22T10:01:34.044Z,46.71
2023-05-22T10:04:07.736Z,46.69
2023-05-22T10:06:39.609Z,46.47
2023-05-22T10:09:13.128Z,46.62
2023-05-22T10:11:47.675Z,46.50
2023-05-22T10:14:21.945Z,46.31
2023-05-22T10:16:56.799Z,46.03
2023-05-22T10:19:29.102Z,45.97
2023-05-22T10:22:02.087Z,46.18
2023-05-22T10:24:33.011Z,46.41
2023-05-22T10:27:03.807Z,45.44
2023-05-22T10:29:43.520Z,45.40
2023-05-22T10:32:26.199Z,45.47
2023-05-22T10:35:24.332Z,45.09
2023-05-22T10:37:58.338Z,44.92
2023-05-22T10:40:32.678Z,44.54
2023-05-22T10:43:04.887Z,44.50
2023-05-22T10:45:36.817Z,44.81
2023-05-22T10:48:10.367Z,44.38
2023-05-22T10:50:43.338Z,44.55
2023-05-22T10:53:28.310Z,44.38
2023-05-22T10:56:03.704Z,44.60
2023-05-22T10:58:38.624Z,44.43
2023-05-22T11:01:14.520Z,44.25
2023-05-22T11:03:55.843Z,43.63
2023-05-22T11:06:43.507Z,43.56
2023-05-22T11:09:37.220Z,43.51
2023-05-22T11:12:22.661Z,43.57
2023-05-22T11:14:57.551Z,43.42
2023-05-22T11:17:31.287Z,42.89
2023-05-22T11:20:22.640Z,43.06
2023-05-22T11:23:05.190Z,41.91
2023-05-22T11:25:38.225Z,42.06
2023-05-22T11:28:12.838Z,41.93
2023-05-22T11:30:44.433Z,41.77
2023-05-22T11:33:17.814Z,41.44
2023-05-22T11:35:51.647Z,41.58
2023-05-22T11:38:23.531Z,41.31
2023-05-22T11:40:54.052Z,41.12
2023-05-22T11:43:36.032Z,41.04
2023-05-22T11:46:12.227Z,40.72
2023-05-22T11:48:43.546Z,40.19
2023-05-22T11:51:14.166Z,39.58
2023-05-22T11:53:44.867Z,39.74
2023-05-22T11:56:16.768Z,39.41
2023-05-22T11:58:52.276Z,39.41
2023-05-22T12:01:24.815Z,39.27
2023-05-22T12:03:58.793Z,38.46
2023-05-22T12:06:31.357Z,38.71
2023-05-22T12:09:04.724Z,38.88
2023-05-22T12:11:38.681Z,38.46
2023-05-22T12:14:12.527Z,38.58
2023-05-22T12:16:44.834Z,38.20
2023-05-22T12:19:19.392Z,38.58
2023-05-22T12:21:55.098Z,38.62
2023-05-22T12:24:25.961Z,38.17
2023-05-22T12:26:58.350Z,38.39
2023-05-22T12:29:29.848Z,37.88
2023-05-22T12:32:05.246Z,37.83
2023-05-22T12:34:39.538Z,38.14
2023-05-22T12:37:26.123Z,37.22
2023-05-22T12:39:59.013Z,37.39
2023-05-22T12:42:31.383Z,37.35
2023-05-22T12:45:03.484Z,37.08
2023-05-22T12:47:34.600Z,37.21
2023-05-22T12:50:20.492Z,37.24
2023-05-22T12:52:52.542Z,36.86
2023-05-22T12:55:24.359Z,37.02
2023-05-22T12:57:54.898Z,37.22
2023-05-22T13:00:26.006Z,37.17
2023-05-22T13:02:56.955Z,37.02
2023-05-22T13:05:27.645Z,36.80
2023-05-22T13:07:58.335Z,36.86
2023-05-22T13:10:29.378Z,36.80
2023-05-22T13:13:00.108Z,36.76
2023-05-22T13:15:32.350Z,36.73
2023-05-22T13:18:03.170Z,36.83
2023-05-22T13:20:36.984Z,36.43
2023-05-22T13:23:07.692Z,36.49
2023-05-22T13:25:39.074Z,36.25
2023-05-22T13:28:10.037Z,35.82
2023-05-22T13:30:41.162Z,35.66
2023-05-22T13:33:13.942Z,35.62
2023-05-22T13:35:44.800Z,35.61
2023-05-22T13:38:15.719Z,35.54
2023-05-22T13:40:48.320Z,35.12
2023-05-22T13:43:19.600Z,35.13
2023-05-22T13:45:52.143Z,35.14
2023-05-22T13:48:23.082Z,34.82
2023-05-22T13:50:53.879Z,34.41
2023-05-22T13:53:26.642Z,33.93
2023-05-22T13:55:58.359Z,33.66
2023-05-22T13:58:28.792Z,33.44
2023-05-22T14:00:59.668Z,33.51
2023-05-22T14:03:32.088Z,33.59
2023-05-22T14:06:02.932Z,33.81
2023-05-22T14:08:33.512Z,33.80
2023-05-22T14:11:05.564Z,33.53
2023-05-22T14:13:37.005Z,33.94
2023-05-22T14:16:07.689Z,33.65
2023-05-22T14:18:38.142Z,33.44
2023-05-22T14:21:11.188Z,33.57
2023-05-22T14:23:41.823Z,33.36
2023-05-22T14:26:14.370Z,33.27
2023-05-22T14:28:45.558Z,33.35
2023-05-22T14:31:16.244Z,33.21
2023-05-22T14:33:47.035Z,33.43
2023-05-22T14:36:18.001Z,33.58
2023-05-22T14:38:48.487Z,33.44
2023-05-22T14:41:19.228Z,33.34
2023-05-22T14:43:50.320Z,33.46
2023-05-22T14:46:20.929Z,33.18
2023-05-22T14:48:53.528Z,32.86
2023-05-22T14:51:24.849Z,32.91
2023-05-22T14:53:55.513Z,33.12
2023-05-22T14:56:26.673Z,33.27
2023-05-22T14:58:58.453Z,32.58
2023-05-22T15:01:29.022Z,32.36
2023-05-22T15:03:59.572Z,32.58
2023-05-22T15:06:30.158Z,32.63
2023-05-22T15:09:01.139Z,32.57
2023-05-22T15:11:31.933Z,32.28
2023-05-22T15:14:02.665Z,32.40
2023-05-22T15:16:33.493Z,32.69
2023-05-22T15:19:05.243Z,32.74
2023-05-22T15:21:36.686Z,32.94
2023-05-22T15:24:09.136Z,33.30
2023-05-22T15:26:41.292Z,32.66
2023-05-22T15:29:12.722Z,33.01
2023-05-22T15:31:43.370Z,32.90
2023-05-22T15:34:14.275Z,32.59
2023-05-22T15:36:44.825Z,32.59
2023-05-22T15:39:15.717Z,32.75
2023-05-22T15:41:54.654Z,32.68
2023-05-22T15:44:19.392Z,32.71
2023-05-22T15:46:53.731Z,32.55
2023-05-22T15:49:24.347Z,32.30
2023-05-22T15:51:57.814Z,32.39
2023-05-22T15:54:42.542Z,32.68
2023-05-22T15:57:14.349Z,32.88
2023-05-22T15:59:46.642Z,32.81
2023-05-22T16:02:17.842Z,33.04
2023-05-22T16:04:50.699Z,32.98
2023-05-22T16:07:21.389Z,32.59
2023-05-22T16:09:52.249Z,32.35
2023-05-22T16:12:23.769Z,32.47
2023-05-22T16:15:00.254Z,32.46
2023-05-22T16:17:27.195Z,32.25
2023-05-22T16:19:59.483Z,32.29
2023-05-22T16:22:40.635Z,32.11
2023-05-22T16:25:04.745Z,32.62
2023-05-22T16:27:37.050Z,32.96
2023-05-22T16:30:11.191Z,33.06
2023-05-22T16:32:43.555Z,33.32
2023-05-22T16:35:14.818Z,33.38
2023-05-22T16:37:45.527Z,33.25
2023-05-22T16:40:16.492Z,33.42
2023-05-22T16:42:47.597Z,33.16
2023-05-22T16:45:18.249Z,33.16
2023-05-22T16:47:48.810Z,33.04
2023-05-22T16:50:20.897Z,33.01
2023-05-22T16:52:51.505Z,32.81
2023-05-22T16:55:22.536Z,33.19
2023-05-22T16:57:53.538Z,33.25
2023-05-22T17:00:25.248Z,33.44
2023-05-22T17:02:56.805Z,33.13
2023-05-22T17:05:27.433Z,33.28
2023-05-22T17:07:58.083Z,33.55
2023-05-22T17:10:28.898Z,32.94
2023-05-22T17:13:00.808Z,33.11
2023-05-22T17:15:31.534Z,33.31
2023-05-22T17:18:03.177Z,33.19
2023-05-22T17:20:35.861Z,33.48
2023-05-22T17:23:07.302Z,33.19
2023-05-22T17:25:39.587Z,33.37
2023-05-22T17:28:10.772Z,33.81
2023-05-22T17:30:49.006Z,33.61
2023-05-22T17:33:19.643Z,33.86
2023-05-22T17:35:50.863Z,33.76
2023-05-22T17:38:22.110Z,33.68
2023-05-22T17:40:53.633Z,34.23
2023-05-22T17:43:24.221Z,33.98
2023-05-22T17:45:55.329Z,34.30
2023-05-22T17:48:27.803Z,34.30
2023-05-22T17:50:59.526Z,34.65
2023-05-22T17:53:31.947Z,34.74
2023-05-22T17:56:02.675Z,34.85
2023-05-22T17:58:33.233Z,35.14
2023-05-22T18:01:08.021Z,35.27
2023-05-22T18:03:38.840Z,35.37
2023-05-22T18:06:09.609Z,35.40
2023-05-22T18:08:41.406Z,35.50
2023-05-22T18:11:11.956Z,35.77
2023-05-22T18:13:43.300Z,35.55
2023-05-22T18:16:14.126Z,35.83
2023-05-22T18:18:45.065Z,36.09
2023-05-22T18:21:16.445Z,35.55
2023-05-22T18:23:47.954Z,35.85
2023-05-22T18:26:18.589Z,36.15
2023-05-22T18:28:49.304Z,35.94
2023-05-22T18:31:22.358Z,36.01
2023-05-22T18:33:53.906Z,36.40
2023-05-22T18:36:24.572Z,36.54
2023-05-22T18:38:55.534Z,36.70
2023-05-22T18:41:29.723Z,37.34
2023-05-22T18:44:00.165Z,36.84
2023-05-22T18:46:32.532Z,37.17
2023-05-22T18:49:03.264Z,37.11
2023-05-22T18:51:36.005Z,37.73
2023-05-22T18:54:07.995Z,37.76
2023-05-22T18:56:39.293Z,37.79
2023-05-22T18:59:09.965Z,37.66
2023-05-22T19:01:40.740Z,37.78
2023-05-22T19:04:12.320Z,37.72
2023-05-22T19:06:43.599Z,37.85
2023-05-22T19:09:14.248Z,37.84
2023-05-22T19:11:47.419Z,38.04
2023-05-22T19:14:18.174Z,38.37
2023-05-22T19:16:48.892Z,38.37
2023-05-22T19:19:20.070Z,38.30
2023-05-22T19:21:51.140Z,38.49
2023-05-22T19:24:22.855Z,38.72
2023-05-22T19:26:53.527Z,38.62
2023-05-22T19:29:25.756Z,38.61
2023-05-22T19:31:58.397Z,38.58
2023-05-22T19:34:29.974Z,38.55
2023-05-22T19:37:01.017Z,38.94
2023-05-22T19:39:31.586Z,38.81
2023-05-22T19:42:05.384Z,38.87
2023-05-22T19:44:36.315Z,39.13
2023-05-22T19:47:07.167Z,39.06
2023-05-22T19:49:38.319Z,39.33
2023-05-22T19:52:10.503Z,39.32
2023-05-22T19:54:42.190Z,39.35
2023-05-22T19:57:14.092Z,39.51
2023-05-22T19:59:46.972Z,39.61
2023-05-22T20:02:17.675Z,39.64
2023-05-22T20:04:48.379Z,39.77
2023-05-22T20:07:19.209Z,40.22
2023-05-22T20:09:50.149Z,40.88
2023-05-22T20:12:20.731Z,40.26
2023-05-22T20:15:01.528Z,40.29
2023-05-22T20:17:27.430Z,40.55
2023-05-22T20:20:01.649Z,40.64
2023-05-22T20:22:32.184Z,40.75
2023-05-22T20:25:05.619Z,40.49
2023-05-22T20:27:36.343Z,40.77
2023-05-22T20:30:09.783Z,40.62
2023-05-22T20:32:42.698Z,40.97
2023-05-22T20:35:16.631Z,41.45
2023-05-22T20:37:47.693Z,41.36
2023-05-22T20:40:18.542Z,41.75
2023-05-22T20:42:50.231Z,41.62
2023-05-22T20:45:22.684Z,41.81
2023-05-22T20:47:53.487Z,41.91
2023-05-22T20:50:24.664Z,42.13
2023-05-22T20:52:55.147Z,42.04
2023-05-22T20:55:25.889Z,42.10
2023-05-22T20:57:58.025Z,42.62
2023-05-22T21:00:29.921Z,42.29
2023-05-22T21:03:01.182Z,42.54
2023-05-22T21:05:31.712Z,42.38
2023-05-22T21:08:02.221Z,42.49
2023-05-22T21:10:32.896Z,42.61
2023-05-22T21:13:03.399Z,42.89
2023-05-22T21:15:34.008Z,43.18
2023-05-22T21:18:04.730Z,43.18
2023-05-22T21:20:35.438Z,42.96
2023-05-22T21:23:06.318Z,43.06
2023-05-22T21:25:36.985Z,43.44
2023-05-22T21:28:07.971Z,43.19
2023-05-22T21:30:40.084Z,43.52
2023-05-22T21:33:12.055Z,43.19
2023-05-22T21:35:42.712Z,43.13
2023-05-22T21:38:13.325Z,43.16
2023-05-22T21:40:44.061Z,43.00
2023-05-22T21:43:15.177Z,43.12
2023-05-22T21:45:45.886Z,43.22
2023-05-22T21:48:16.402Z,43.22
2023-05-22T21:50:47.054Z,43.19
2023-05-22T21:53:17.563Z,43.51
2023-05-22T21:55:48.477Z,43.41
2023-05-22T21:58:18.957Z,43.48
2023-05-22T22:00:49.603Z,43.41
2023-05-22T22:03:20.776Z,43.41
2023-05-22T22:05:51.549Z,43.76
2023-05-22T22:08:22.197Z,43.92
2023-05-22T22:10:52.809Z,43.96
2023-05-22T22:13:23.391Z,44.14
2023-05-22T22:15:54.162Z,44.21
2023-05-22T22:18:24.736Z,44.27
2023-05-22T22:20:56.005Z,44.34
2023-05-22T22:23:26.572Z,44.36
2023-05-22T22:25:58.768Z,44.52
2023-05-22T22:28:29.207Z,44.68
2023-05-22T22:31:01.346Z,44.84
2023-05-22T22:33:34.655Z,45.00
2023-05-22T22:36:05.377Z,45.12
2023-05-22T22:38:35.938Z,45.31
2023-05-22T22:41:08.547Z,45.53
2023-05-22T22:43:39.673Z,45.62
2023-05-22T22:46:10.430Z,45.40
2023-05-22T22:48:41.788Z,45.35
2023-05-22T22:51:12.650Z,45.47
2023-05-22T22:53:44.412Z,45.53
2023-05-22T22:56:15.191Z,45.78
2023-05-22T22:58:45.826Z,45.93
2023-05-22T23:01:16.485Z,45.84
2023-05-22T23:03:47.242Z,45.62
2023-05-22T23:06:20.954Z,45.81
2023-05-22T23:08:52.735Z,45.28
2023-05-22T23:11:23.710Z,45.61
2023-05-22T23:13:56.231Z,45.96
2023-05-22T23:16:26.896Z,45.65
2023-05-22T23:18:57.736Z,45.86
2023-05-22T23:21:28.492Z,45.96
2023-05-22T23:23:59.845Z,45.73
2023-05-22T23:26:31.049Z,45.64
2023-05-22T23:29:02.274Z,46.14
2023-05-22T23:31:32.853Z,46.26
2023-05-22T23:34:03.563Z,46.23
2023-05-22T23:36:34.049Z,46.39
2023-05-22T23:39:04.761Z,46.44
2023-05-22T23:41:35.598Z,46.29
2023-05-22T23:44:06.245Z,46.38
2023-05-22T23:46:38.520Z,46.56
2023-05-22T23:49:09.302Z,46.78
2023-05-22T23:51:39.906Z,46.65
2023-05-22T23:54:12.666Z,46.72
2023-05-22T23:56:43.292Z,46.78
2023-05-22T23:59:15.864Z,46.54
